createdAt,value
2024-01-18T00:02:24.083Z,97582.34
2024-01-18T00:07:26.862Z,97575.23
2024-01-18T00:12:30.054Z,97577.02
2024-01-18T00:17:33.218Z,97568.36
2024-01-18T00:22:35.980Z,97565.14
2024-01-18T00:27:38.919Z,97567.77
2024-01-18T00:32:41.868Z,97570.10
2024-01-18T00:37:44.745Z,97561.48
2024-01-18T00:42:47.773Z,97562.77
2024-01-18T00:47:50.698Z,97564.19
2024-01-18T00:52:53.534Z,97570.46
2024-01-18T00:57:56.544Z,97566.67
2024-01-18T01:02:59.306Z,97557.45
2024-01-18T01:08:02.738Z,97548.05
2024-01-18T01:13:05.647Z,97539.46
2024-01-18T01:18:08.677Z,97533.04
2024-01-18T01:23:11.503Z,97536.22
2024-01-18T01:28:14.379Z,97539.94
2024-01-18T01:33:17.357Z,97537.99
2024-01-18T01:38:20.360Z,97536.53
2024-01-18T01:43:24.423Z,97526.94
2024-01-18T01:48:27.583Z,97528.46
2024-01-18T01:53:30.634Z,97532.37
2024-01-18T01:58:34.369Z,97533.75
2024-01-18T02:03:38.123Z,97530.69
2024-01-18T02:08:41.090Z,97532.48
2024-01-18T02:13:43.904Z,97525.09
2024-01-18T02:18:47.712Z,97524.15
2024-01-18T02:23:58.902Z,97523.09
2024-01-18T02:29:01.839Z,97524.15
2024-01-18T02:34:15.407Z,97530.01
2024-01-18T02:39:18.515Z,97533.06
2024-01-18T02:44:21.700Z,97534.08
2024-01-18T02:49:24.692Z,97532.63
2024-01-18T02:54:27.568Z,97530.69
2024-01-18T02:59:30.349Z,97538.36
2024-01-18T03:04:33.147Z,97529.30
2024-01-18T03:09:36.026Z,97522.88
2024-01-18T03:14:38.872Z,97535.19
2024-01-18T03:19:41.733Z,97527.86
2024-01-18T03:24:44.508Z,97528.61
2024-01-18T03:29:47.239Z,97541.71
2024-01-18T03:34:50.685Z,97539.71
2024-01-18T03:39:53.451Z,97534.01
2024-01-18T03:44:56.260Z,97532.86
2024-01-18T03:49:59.292Z,97538.34
2024-01-18T03:55:02.104Z,97540.33
2024-01-18T04:00:06.450Z,97546.79
2024-01-18T04:05:09.708Z,97537.10
2024-01-18T04:10:12.532Z,97550.68
2024-01-18T04:15:15.447Z,97563.27
2024-01-18T04:20:23.144Z,97568.10
2024-01-18T04:25:26.155Z,97572.91
2024-01-18T04:30:29.931Z,97581.56
2024-01-18T04:35:32.900Z,97577.73
2024-01-18T04:40:35.956Z,97589.14
2024-01-18T04:45:38.934Z,97600.84
2024-01-18T04:50:41.866Z,97596.55
2024-01-18T04:55:45.208Z,97590.52
2024-01-18T05:00:48.274Z,97589.12
2024-01-18T05:05:51.500Z,97585.48
2024-01-18T05:10:56.138Z,97590.69
2024-01-18T05:16:00.751Z,97612.05
2024-01-18T05:21:03.852Z,97612.36
2024-01-18T05:26:06.809Z,97608.83
2024-01-18T05:31:09.587Z,97620.79
2024-01-18T05:36:12.742Z,97623.77
2024-01-18T05:41:15.608Z,97623.02
2024-01-18T05:46:20.737Z,97627.13
2024-01-18T05:51:24.975Z,97634.80
2024-01-18T05:56:27.886Z,97648.59
2024-01-18T06:01:30.698Z,97663.52
2024-01-18T06:06:33.767Z,97661.16
2024-01-18T06:11:36.951Z,97666.69
2024-01-18T06:16:39.759Z,97678.02
2024-01-18T06:21:42.599Z,97682.23
2024-01-18T06:26:45.524Z,97691.65
2024-01-18T06:31:48.323Z,97698.13
2024-01-18T06:36:52.774Z,97695.34
2024-01-18T06:41:55.990Z,97707.46
2024-01-18T06:46:59.277Z,97718.16
2024-01-18T06:52:03.584Z,97729.91
2024-01-18T06:57:06.672Z,97723.73
2024-01-18T07:02:09.558Z,97714.83
2024-01-18T07:07:12.477Z,97709.40
2024-01-18T07:12:15.376Z,97717.45
2024-01-18T07:17:18.179Z,97739.32
2024-01-18T07:22:21.059Z,97755.02
2024-01-18T07:27:24.221Z,97739.56
2024-01-18T07:32:27.124Z,97758.09
2024-01-18T07:37:30.043Z,97763.60
2024-01-18T07:42:33.370Z,97761.38
2024-01-18T07:47:37.047Z,97775.95
2024-01-18T07:52:40.071Z,97792.61
2024-01-18T07:57:42.963Z,97812.14
2024-01-18T08:02:45.852Z,97823.33
2024-01-18T08:07:48.717Z,97815.42
2024-01-18T08:12:52.965Z,97817.94
2024-01-18T08:17:56.025Z,97829.34
2024-01-18T08:22:58.993Z,97835.05
2024-01-18T08:28:01.984Z,97849.58
2024-01-18T08:33:05.039Z,97851.63
2024-01-18T08:38:08.056Z,97856.43
2024-01-18T08:43:12.079Z,97864.27
2024-01-18T08:48:16.192Z,97866.14
2024-01-18T08:53:19.061Z,97871.59
2024-01-18T08:58:21.856Z,97882.34
2024-01-18T09:03:24.906Z,97896.43
2024-01-18T09:08:28.005Z,97903.73
2024-01-18T09:13:30.813Z,97918.64
2024-01-18T09:18:33.788Z,97926.45
2024-01-18T09:23:37.445Z,97932.34
2024-01-18T09:28:40.317Z,97930.89
2024-01-18T09:33:43.106Z,97924.94
2024-01-18T09:38:49.172Z,97938.13
2024-01-18T09:43:57.640Z,97940.33
2024-01-18T09:49:04.345Z,97937.69
2024-01-18T09:54:08.537Z,97944.48
2024-01-18T09:59:16.786Z,97955.61
2024-01-18T10:04:21.026Z,97951.16
2024-01-18T10:09:24.150Z,97947.32
2024-01-18T10:14:43.878Z,97957.48
2024-01-18T10:19:46.885Z,97977.92
2024-01-18T10:24:51.435Z,97978.49
2024-01-18T10:29:56.440Z,97985.61
2024-01-18T10:35:01.190Z,97984.89
2024-01-18T10:40:06.651Z,97997.57
2024-01-18T10:45:09.823Z,97991.48
2024-01-18T10:50:13.127Z,97991.44
2024-01-18T10:55:16.008Z,98004.17
2024-01-18T11:00:20.886Z,98005.24
2024-01-18T11:05:25.016Z,98009.98
2024-01-18T11:10:28.306Z,98027.31
2024-01-18T11:15:32.418Z,98034.90
2024-01-18T11:20:37.684Z,98035.16
2024-01-18T11:25:41.013Z,98040.18
2024-01-18T11:30:48.788Z,98039.23
2024-01-18T11:35:52.070Z,98044.49
2024-01-18T11:41:20.012Z,98047.60
2024-01-18T11:46:38.759Z,98046.16
2024-01-18T11:51:42.482Z,98040.82
2024-01-18T11:56:49.022Z,98047.54
2024-01-18T12:01:51.973Z,98056.80
2024-01-18T12:06:57.424Z,98063.27
2024-01-18T12:12:02.075Z,98060.92
2024-01-18T12:17:13.002Z,98059.96
2024-01-18T12:22:20.672Z,98070.81
2024-01-18T12:27:24.797Z,98067.83
2024-01-18T12:32:31.616Z,98071.11
2024-01-18T12:37:34.526Z,98083.48
2024-01-18T12:42:37.678Z,98076.71
2024-01-18T12:47:41.062Z,98091.48
2024-01-18T12:52:44.263Z,98099.91
2024-01-18T12:57:47.878Z,98109.61
2024-01-18T13:02:53.628Z,98115.67
2024-01-18T13:07:57.207Z,98119.90
2024-01-18T13:13:00.577Z,98132.73
2024-01-18T13:18:05.887Z,98141.21
2024-01-18T13:23:10.919Z,98151.46
2024-01-18T13:28:13.959Z,98151.69
2024-01-18T13:33:16.933Z,98148.80
2024-01-18T13:38:20.365Z,98153.38
2024-01-18T13:43:23.263Z,98162.05
2024-01-18T13:48:29.530Z,98175.77
2024-01-18T13:53:34.646Z,98182.10
2024-01-18T13:58:38.248Z,98190.23
2024-01-18T14:03:47.163Z,98193.00
2024-01-18T14:08:50.364Z,98198.85
2024-01-18T14:13:53.455Z,98211.60
2024-01-18T14:18:56.363Z,98210.83
2024-01-18T14:23:59.282Z,98221.30
2024-01-18T14:29:03.424Z,98223.81
2024-01-18T14:34:06.577Z,98232.45
2024-01-18T14:39:09.553Z,98238.08
2024-01-18T14:44:12.659Z,98238.70
2024-01-18T14:49:20.149Z,98236.70
2024-01-18T14:54:23.176Z,98245.46
2024-01-18T14:59:26.122Z,98259.46
2024-01-18T15:04:29.178Z,98279.36
2024-01-18T15:09:33.060Z,98268.98
2024-01-18T15:14:38.295Z,98271.94
2024-01-18T15:19:41.183Z,98277.05
2024-01-18T15:24:44.341Z,98282.85
2024-01-18T15:29:47.365Z,98285.04
2024-01-18T15:34:50.370Z,98295.60
2024-01-18T15:39:53.466Z,98306.19
2024-01-18T15:44:56.313Z,98315.13
2024-01-18T15:49:59.237Z,98330.09
2024-01-18T15:55:02.668Z,98333.23
2024-01-18T16:00:07.917Z,98338.56
2024-01-18T16:05:10.995Z,98344.24
2024-01-18T16:10:13.998Z,98356.30
2024-01-18T16:15:16.956Z,98366.23
2024-01-18T16:20:19.885Z,98374.48
2024-01-18T16:25:22.674Z,98378.80
2024-01-18T16:30:30.140Z,98382.90
2024-01-18T16:35:34.164Z,98388.96
2024-01-18T16:40:37.427Z,98396.45
2024-01-18T16:45:40.727Z,98399.30
2024-01-18T16:50:44.083Z,98403.29
2024-01-18T16:55:46.909Z,98413.33
2024-01-18T17:00:50.450Z,98422.95
2024-01-18T17:05:53.614Z,98427.17
2024-01-18T17:10:56.796Z,98423.20
2024-01-18T17:15:59.585Z,98437.34
2024-01-18T17:21:02.690Z,98444.11
2024-01-18T17:26:05.565Z,98450.54
2024-01-18T17:31:09.462Z,98452.89
2024-01-18T17:36:14.238Z,98468.14
2024-01-18T17:41:18.534Z,98477.48
2024-01-18T17:46:21.321Z,98482.43
2024-01-18T17:51:24.161Z,98493.04
2024-01-18T17:56:27.035Z,98498.83
2024-01-18T18:01:29.890Z,98515.41
2024-01-18T18:06:33.052Z,98522.30
2024-01-18T18:11:35.960Z,98527.16
2024-01-18T18:16:38.826Z,98539.86
2024-01-18T18:21:41.671Z,98548.23
2024-01-18T18:26:44.713Z,98553.54
2024-01-18T18:31:47.564Z,98570.66
2024-01-18T18:36:51.220Z,98573.39
2024-01-18T18:41:54.842Z,98580.16
2024-01-18T18:46:57.617Z,98583.33
2024-01-18T18:52:00.396Z,98592.61
2024-01-18T18:57:03.287Z,98609.59
2024-01-18T19:02:06.616Z,98612.54
2024-01-18T19:07:09.426Z,98615.05
2024-01-18T19:12:12.227Z,98620.23
2024-01-18T19:17:16.399Z,98625.17
2024-01-18T19:22:19.232Z,98631.15
2024-01-18T19:27:22.021Z,98639.83
2024-01-18T19:32:25.675Z,98648.02
2024-01-18T19:37:28.897Z,98661.71
2024-01-18T19:42:31.750Z,98667.98
2024-01-18T19:47:34.762Z,98682.54
2024-01-18T19:52:40.355Z,98696.17
2024-01-18T19:57:45.371Z,98696.51
2024-01-18T20:02:48.357Z,98707.49
2024-01-18T20:07:51.364Z,98713.23
2024-01-18T20:12:54.400Z,98717.73
2024-01-18T20:17:57.580Z,98718.73
2024-01-18T20:23:01.740Z,98727.33
2024-01-18T20:28:05.211Z,98736.57
2024-01-18T20:33:08.268Z,98743.36
2024-01-18T20:38:11.888Z,98749.65
2024-01-18T20:43:14.787Z,98769.58
2024-01-18T20:48:17.810Z,98781.98
2024-01-18T20:53:20.742Z,98792.64
2024-01-18T20:58:23.518Z,98800.55
2024-01-18T21:03:26.775Z,98804.34
2024-01-18T21:08:29.722Z,98806.89
2024-01-18T21:13:33.386Z,98809.30
2024-01-18T21:18:36.813Z,98818.31
2024-01-18T21:23:39.596Z,98827.87
2024-01-18T21:28:42.455Z,98835.13
2024-01-18T21:33:46.396Z,98848.02
2024-01-18T21:38:49.215Z,98852.04
2024-01-18T21:43:52.051Z,98852.11
2024-01-18T21:48:55.023Z,98865.48
2024-01-18T21:53:58.022Z,98874.66
2024-01-18T21:59:01.082Z,98879.05
2024-01-18T22:04:05.228Z,98888.97
2024-01-18T22:09:08.201Z,98885.48
2024-01-18T22:14:11.079Z,98888.55
2024-01-18T22:19:28.945Z,98894.48
2024-01-18T22:24:38.510Z,98910.48
2024-01-18T22:29:44.198Z,98922.36
2024-01-18T22:34:48.695Z,98932.81
2024-01-18T22:39:52.829Z,98944.98
2024-01-18T22:44:55.611Z,98960.33
2024-01-18T22:49:58.575Z,98962.15
2024-01-18T22:55:01.611Z,98972.89
2024-01-18T23:00:06.976Z,98986.50
2024-01-18T23:05:09.836Z,98991.70
2024-01-18T23:10:12.688Z,99002.64
2024-01-18T23:15:15.457Z,99002.56
2024-01-18T23:20:18.307Z,99005.97
2024-01-18T23:25:21.854Z,99012.08
2024-01-18T23:30:24.630Z,99021.02
2024-01-18T23:35:27.401Z,99029.55
2024-01-18T23:40:30.176Z,99035.55
2024-01-18T23:45:32.960Z,99044.45
2024-01-18T23:50:35.774Z,99057.74
2024-01-18T23:55:38.584Z,99058.09
